Time;durP1;ratioP1;P1;durP2;ratioP2;P2;SDS_P1;SDS_P2;PMS_P1;PMS_P2;Temp;Humidity;BMP_temperature;BMP_pressure;BME280_temperature;BME280_humidity;BME280_pressure;Samples;Min_cycle;Max_cycle;Signal;HPM_P1;HPM_P2
2022/11/01 00:02:22;;;;;;;9.13;2.03;;;21.00;53.00;;;;;;5000295;28;20026;-78
2022/11/01 00:04:49;;;;;;;10.48;1.98;;;21.00;53.20;;;;;;5002090;28;20616;-78
2022/11/01 00:07:15;;;;;;;12.70;3.20;;;21.00;53.80;;;;;;5000991;28;20038;-83
2022/11/01 00:09:42;;;;;;;7.22;1.65;;;20.90;53.20;;;;;;4999216;28;20030;-79
2022/11/01 00:12:08;;;;;;;10.20;1.98;;;20.90;53.10;;;;;;5014618;28;20076;-76
2022/11/01 00:14:45;;;;;;;;;;;;;;;;;;;;;
2022/11/01 00:17:32;;;;;;;6.10;1.35;;;20.90;53.20;;;;;;5008547;28;20030;-79
2022/11/01 00:20:36;;;;;;;9.20;2.35;;;20.90;53.20;;;;;;5003059;28;20903;-77
2022/11/01 00:30:35;;;;;;;;;;;;;;;;;;;;;
2022/11/01 00:33:49;;;;;;;9.57;1.90;;;20.80;53.30;;;;;;4988726;28;20030;-77
2022/11/01 00:36:31;;;;;;;7.38;1.92;;;20.80;53.60;;;;;;5007783;28;20057;-80
2022/11/01 00:38:58;;;;;;;17.80;3.05;;;20.80;53.60;;;;;;5004122;28;20389;-79
2022/11/01 00:41:36;;;;;;;7.63;1.67;;;20.80;53.70;;;;;;5016184;28;20034;-80
2022/11/01 00:44:29;;;;;;;5.25;1.55;;;20.80;53.60;;;;;;5001578;28;20034;-77
2022/11/01 00:47:19;;;;;;;7.88;2.78;;;20.80;53.60;;;;;;5005296;28;20084;-78
2022/11/01 00:49:57;;;;;;;12.70;2.38;;;20.80;53.70;;;;;;5003222;28;20030;-77
2022/11/01 00:52:27;;;;;;;7.70;2.75;;;20.80;53.80;;;;;;5004527;28;20038;-78
2022/11/01 00:54:54;;;;;;;10.15;2.13;;;20.70;53.80;;;;;;5004260;28;20104;-79
2022/11/01 00:57:29;;;;;;;8.88;2.15;;;20.70;54.20;;;;;;5005855;28;20432;-79
2022/11/01 01:00:58;;;;;;;;;;;;;;;;;;;;;
2022/11/01 01:07:08;;;;;;;;;;;;;;;;;;;;;
2022/11/01 01:13:13;;;;;;;8.25;1.83;;;20.70;54.20;;;;;;4996278;28;20509;-80
2022/11/01 01:15:59;;;;;;;7.97;2.10;;;20.70;54.20;;;;;;5008385;28;20038;-79
2022/11/01 01:18:38;;;;;;;4.70;1.67;;;20.70;54.30;;;;;;5017451;28;20053;-77
2022/11/01 01:21:16;;;;;;;11.98;1.55;;;20.70;54.40;;;;;;5025444;28;20054;-79
2022/11/01 01:24:01;;;;;;;6.82;1.30;;;20.70;54.40;;;;;;5005024;28;20520;-76
2022/11/01 01:26:29;;;;;;;5.80;1.37;;;20.60;54.40;;;;;;5002558;28;20029;-82
2022/11/01 01:28:55;;;;;;;7.93;4.82;;;20.60;54.60;;;;;;5006530;28;20025;-81
2022/11/01 01:31:25;;;;;;;22.23;17.42;;;20.60;54.80;;;;;;5008717;28;20476;-81
2022/11/01 01:33:51;;;;;;;14.55;10.30;;;20.60;54.90;;;;;;5007666;28;20079;-82
2022/11/01 01:36:20;;;;;;;9.30;5.10;;;20.60;54.90;;;;;;5007660;28;20381;-82
2022/11/01 01:38:49;;;;;;;9.38;4.50;;;20.60;54.90;;;;;;5008804;28;20116;-83
2022/11/01 01:44:02;;;;;;;8.63;2.28;;;20.60;54.70;;;;;;5003960;28;20088;-77
2022/11/01 01:46:28;;;;;;;6.18;1.70;;;20.60;54.70;;;;;;5004799;28;20034;-81
2022/11/01 01:48:58;;;;;;;21.08;2.30;;;20.60;54.60;;;;;;5008782;28;20041;-79
2022/11/01 01:51:33;;;;;;;5.00;2.00;;;20.60;54.50;;;;;;5006962;28;20028;-77
2022/11/01 01:54:01;;;;;;;14.95;2.20;;;20.60;54.50;;;;;;5001596;28;20032;-81
2022/11/01 01:56:36;;;;;;;11.10;1.98;;;20.60;54.60;;;;;;5004653;28;20036;-80
2022/11/01 01:59:09;;;;;;;7.32;2.00;;;20.50;54.60;;;;;;5022709;28;20034;-78
2022/11/01 02:01:39;;;;;;;6.45;1.10;;;20.50;54.70;;;;;;5005061;28;20026;-78
2022/11/01 02:04:18;;;;;;;7.68;1.42;;;20.50;54.80;;;;;;5006864;28;20029;-80
2022/11/01 02:06:46;;;;;;;5.88;1.70;;;20.50;54.90;;;;;;5004195;28;20014;-81
2022/11/01 02:09:15;;;;;;;7.97;1.90;;;20.50;54.90;;;;;;4999769;28;20156;-80
2022/11/01 02:11:41;;;;;;;5.18;1.45;;;20.50;55.00;;;;;;5004591;28;20038;-81
2022/11/01 02:14:08;;;;;;;8.82;1.70;;;20.50;55.10;;;;;;5011574;28;20077;-82
2022/11/01 02:16:51;;;;;;;8.27;1.58;;;20.50;55.30;;;;;;5005908;28;20558;-79
2022/11/01 02:19:36;;;;;;;7.45;1.83;;;20.50;55.40;;;;;;5001895;28;20033;-79
2022/11/01 02:22:16;;;;;;;7.82;2.17;;;20.40;55.50;;;;;;5008150;28;20500;-79
2022/11/01 02:25:15;;;;;;;10.30;1.98;;;20.40;55.70;;;;;;5000025;28;20382;-80
2022/11/01 02:27:51;;;;;;;5.85;1.63;;;20.40;55.90;;;;;;5005292;28;20048;-81
2022/11/01 02:30:20;;;;;;;5.88;1.63;;;20.40;56.10;;;;;;5008676;28;20057;-79
2022/11/01 02:33:22;;;;;;;24.13;11.80;;;20.40;56.10;;;;;;5005482;28;20113;-81
2022/11/01 02:36:11;;;;;;;21.58;15.85;;;20.40;57.20;;;;;;4995554;28;20057;-77
2022/11/01 02:39:00;;;;;;;48.60;14.25;;;20.40;57.80;;;;;;5004518;28;20046;-78
2022/11/01 02:41:42;;;;;;;16.85;9.95;;;20.40;58.00;;;;;;5002096;28;20034;-77
2022/11/01 02:44:27;;;;;;;12.95;4.60;;;20.40;57.30;;;;;;5001342;28;20042;-83
2022/11/01 02:47:02;;;;;;;6.55;3.35;;;20.40;56.90;;;;;;5004858;28;20026;-79
2022/11/01 02:49:41;;;;;;;9.00;2.47;;;20.40;56.60;;;;;;5006342;28;20010;-78
2022/11/01 02:52:18;;;;;;;6.95;1.50;;;20.30;56.40;;;;;;5022856;28;20475;-78
2022/11/01 02:54:55;;;;;;;3.10;1.52;;;20.30;56.40;;;;;;5007049;28;20030;-79
2022/11/01 02:57:38;;;;;;;9.00;1.45;;;20.30;56.40;;;;;;5002183;28;20026;-79
2022/11/01 03:00:36;;;;;;;5.80;1.02;;;20.20;56.40;;;;;;5006332;28;20509;-78
2022/11/01 03:03:21;;;;;;;7.43;1.25;;;20.20;56.30;;;;;;5004427;28;20049;-81
2022/11/01 03:06:00;;;;;;;9.32;2.45;;;20.20;56.40;;;;;;5007390;28;20551;-77
2022/11/01 03:08:52;;;;;;;10.32;1.95;;;20.10;56.30;;;;;;4998586;28;20038;-80
2022/11/01 03:11:23;;;;;;;7.43;2.13;;;20.10;56.30;;;;;;5003905;28;20489;-80
2022/11/01 03:14:12;;;;;;;5.20;1.48;;;20.10;56.20;;;;;;5000931;28;20042;-79
2022/11/01 03:16:59;;;;;;;8.55;2.92;;;20.10;56.20;;;;;;4994199;28;20042;-78
2022/11/01 03:19:37;;;;;;;13.10;2.13;;;20.10;56.20;;;;;;5000252;28;20504;-77
2022/11/01 03:22:19;;;;;;;7.43;2.15;;;20.10;56.20;;;;;;4998766;28;20089;-77
2022/11/01 03:25:38;;;;;;;10.38;2.00;;;20.10;56.20;;;;;;5000904;28;20038;-78
2022/11/01 03:27:55;;;;;;;7.93;1.60;;;20.00;56.20;;;;;;4999626;28;20041;-80
2022/11/01 03:30:22;;;;;;;12.43;1.77;;;20.10;56.20;;;;;;5002118;28;20380;-77
2022/11/01 03:32:57;;;;;;;7.88;2.42;;;20.10;56.10;;;;;;5000708;28;20551;-78
2022/11/01 03:35:35;;;;;;;3.58;1.40;;;20.10;56.20;;;;;;4997720;28;20034;-80
2022/11/01 03:38:07;;;;;;;3.80;2.17;;;20.00;56.20;;;;;;5000025;28;20028;-79
2022/11/01 03:40:35;;;;;;;8.38;1.83;;;20.00;56.30;;;;;;5001588;28;20018;-77
2022/11/01 03:43:05;;;;;;;5.35;1.92;;;20.00;56.30;;;;;;5006487;28;20088;-78
2022/11/01 03:45:36;;;;;;;4.55;1.10;;;20.00;56.40;;;;;;5004291;28;20108;-82
2022/11/01 03:48:04;;;;;;;8.75;2.00;;;20.00;56.40;;;;;;5006897;28;20030;-82
2022/11/01 03:51:10;;;;;;;8.38;2.08;;;20.00;56.50;;;;;;5005667;28;20018;-81
2022/11/01 03:54:19;;;;;;;7.07;1.48;;;20.00;56.60;;;;;;5001622;28;20044;-82
2022/11/01 03:56:59;;;;;;;5.80;1.67;;;19.90;56.60;;;;;;5006942;28;20494;-81
2022/11/01 03:59:26;;;;;;;10.38;2.60;;;19.90;56.70;;;;;;4999754;28;20031;-78
2022/11/01 04:01:56;;;;;;;26.08;11.30;;;19.90;56.90;;;;;;5008875;28;20073;-79
2022/11/01 04:04:22;;;;;;;41.50;14.35;;;19.90;58.30;;;;;;4997884;28;20042;-80
2022/11/01 04:06:53;;;;;;;19.42;7.65;;;19.90;58.30;;;;;;5002141;28;20046;-77
2022/11/01 04:09:29;;;;;;;8.68;3.22;;;19.90;58.00;;;;;;5001123;28;20014;-84
2022/11/01 04:12:00;;;;;;;9.75;3.08;;;19.90;58.60;;;;;;5001543;28;20037;-79
2022/11/01 04:22:40;;;;;;;29.77;7.10;;;19.90;59.20;;;;;;5004067;28;20085;-83
2022/11/01 04:25:07;;;;;;;36.13;16.08;;;19.90;59.70;;;;;;5005581;28;20096;-80
2022/11/01 04:27:36;;;;;;;21.83;9.35;;;20.00;60.10;;;;;;5006269;28;20469;-82
2022/11/01 04:30:03;;;;;;;14.95;4.13;;;20.00;59.60;;;;;;5004713;28;20032;-83
2022/11/01 04:32:30;;;;;;;10.85;3.05;;;20.00;59.40;;;;;;5012356;28;20385;-84
2022/11/01 04:34:56;;;;;;;10.70;2.72;;;19.90;58.90;;;;;;5005536;28;20097;-81
2022/11/01 04:37:22;;;;;;;8.82;3.53;;;19.90;58.50;;;;;;5006034;28;20023;-83
2022/11/01 04:39:49;;;;;;;5.22;2.38;;;19.90;58.40;;;;;;5008792;28;20034;-80
2022/11/01 04:42:15;;;;;;;8.98;2.10;;;19.90;58.20;;;;;;5002146;28;20104;-82
2022/11/01 04:44:42;;;;;;;3.75;1.92;;;19.90;58.00;;;;;;5003275;28;20034;-81
2022/11/01 04:47:08;;;;;;;4.72;1.85;;;20.00;58.00;;;;;;4998672;28;20034;-83
2022/11/01 04:49:35;;;;;;;4.63;2.70;;;19.90;57.80;;;;;;5011445;28;20099;-83
2022/11/01 04:52:04;;;;;;;10.15;2.13;;;19.90;57.80;;;;;;5012610;28;20010;-80
2022/11/01 04:54:32;;;;;;;10.48;2.80;;;19.90;57.80;;;;;;5011357;28;20060;-85
2022/11/01 04:56:59;;;;;;;9.45;2.53;;;20.00;58.20;;;;;;5010391;28;20018;-84
2022/11/01 04:59:26;;;;;;;9.27;2.20;;;20.00;58.60;;;;;;5027290;28;20076;-82
2022/11/01 05:01:52;;;;;;;10.43;2.92;;;20.00;58.80;;;;;;5003968;28;20026;-86
2022/11/01 05:04:58;;;;;;;10.55;1.95;;;20.00;59.00;;;;;;5010779;28;20044;-86
2022/11/01 05:08:04;;;;;;;11.57;2.45;;;20.00;59.10;;;;;;5020955;28;21747;-85
2022/11/01 05:11:10;;;;;;;7.47;2.47;;;20.00;59.30;;;;;;5013057;28;20080;-87
2022/11/01 05:14:19;;;;;;;13.00;1.40;;;20.00;59.20;;;;;;5004278;28;20054;-82
2022/11/01 05:16:46;;;;;;;6.28;1.30;;;20.10;59.30;;;;;;5007249;28;20050;-85
2022/11/01 05:19:12;;;;;;;4.57;1.33;;;20.10;59.20;;;;;;5003274;28;20373;-86
2022/11/01 05:21:39;;;;;;;9.63;1.60;;;20.10;59.00;;;;;;4998795;28;20540;-87
2022/11/01 05:24:06;;;;;;;7.57;2.45;;;20.10;58.80;;;;;;5009274;28;20456;-83
2022/11/01 05:26:33;;;;;;;13.15;4.10;;;20.10;58.80;;;;;;5010290;28;20025;-85
2022/11/01 05:28:59;;;;;;;13.88;2.20;;;20.10;58.80;;;;;;5004242;28;20025;-84
2022/11/01 05:31:26;;;;;;;14.88;3.10;;;20.20;58.80;;;;;;5004576;28;20451;-84
2022/11/01 05:33:52;;;;;;;7.68;2.13;;;20.20;58.60;;;;;;5010960;28;20021;-86
2022/11/01 05:36:18;;;;;;;15.40;2.85;;;20.20;58.90;;;;;;5011155;28;20084;-86
2022/11/01 05:38:45;;;;;;;11.23;1.70;;;20.20;58.10;;;;;;5013270;28;20037;-89
2022/11/01 05:41:11;;;;;;;11.23;1.88;;;20.20;58.30;;;;;;5008826;28;20080;-83
2022/11/01 05:43:38;;;;;;;14.73;2.35;;;20.30;58.70;;;;;;5003187;28;20037;-84
2022/11/01 05:46:06;;;;;;;9.57;2.65;;;20.30;58.90;;;;;;5010438;28;20384;-84
2022/11/01 05:48:33;;;;;;;10.25;2.20;;;20.30;58.50;;;;;;5004669;28;20029;-87
2022/11/01 05:51:00;;;;;;;6.63;1.48;;;20.40;58.10;;;;;;5011059;28;20032;-81
2022/11/01 05:53:27;;;;;;;8.02;2.72;;;20.40;57.80;;;;;;5012026;28;20025;-82
2022/11/01 05:55:56;;;;;;;8.10;1.75;;;20.40;57.50;;;;;;5010701;28;20022;-84
2022/11/01 05:58:23;;;;;;;8.77;1.38;;;20.40;57.30;;;;;;5014788;28;20053;-84
2022/11/01 06:00:49;;;;;;;9.93;2.35;;;20.40;57.20;;;;;;5011860;28;20022;-88
2022/11/01 06:03:16;;;;;;;11.77;2.50;;;20.50;57.20;;;;;;5011781;28;20050;-86
2022/11/01 06:05:42;;;;;;;2.95;1.95;;;20.50;57.70;;;;;;5006828;28;20473;-83
2022/11/01 06:08:09;;;;;;;7.28;1.80;;;20.50;57.60;;;;;;5008547;28;20018;-84
2022/11/01 06:10:35;;;;;;;7.85;1.75;;;20.50;57.30;;;;;;5006738;28;20023;-84
2022/11/01 06:13:01;;;;;;;12.82;4.43;;;20.60;57.00;;;;;;5005803;28;20029;-85
2022/11/01 06:15:28;;;;;;;6.10;1.23;;;20.60;56.80;;;;;;5004424;28;20022;-84
2022/11/01 06:17:57;;;;;;;4.00;1.88;;;20.60;56.60;;;;;;5010356;28;20045;-83
2022/11/01 06:20:24;;;;;;;7.13;1.60;;;20.70;56.80;;;;;;5004091;28;20053;-86
2022/11/01 06:22:51;;;;;;;8.32;1.67;;;20.70;56.70;;;;;;5009632;28;20033;-84
2022/11/01 06:25:18;;;;;;;5.18;1.67;;;20.70;56.60;;;;;;5009510;28;20072;-81
2022/11/01 06:27:44;;;;;;;7.22;2.28;;;20.80;56.40;;;;;;5004537;28;20041;-85
2022/11/01 06:30:11;;;;;;;10.52;2.78;;;20.80;56.30;;;;;;5010287;28;20026;-83
2022/11/01 06:32:38;;;;;;;4.78;1.70;;;20.90;56.30;;;;;;5001919;28;20085;-84
2022/11/01 06:35:04;;;;;;;12.32;3.42;;;20.90;56.30;;;;;;5000646;28;20068;-79
2022/11/01 06:37:31;;;;;;;13.18;2.88;;;21.00;56.50;;;;;;4998917;28;20117;-86
2022/11/01 06:39:57;;;;;;;11.00;2.17;;;20.90;56.60;;;;;;5003333;28;20026;-88
2022/11/01 06:42:24;;;;;;;6.03;1.63;;;21.00;57.00;;;;;;5008214;28;20026;-86
2022/11/01 06:44:50;;;;;;;9.25;2.90;;;21.00;57.10;;;;;;5010289;28;20049;-87
2022/11/01 06:47:17;;;;;;;5.72;1.90;;;21.10;57.20;;;;;;4998997;28;21078;-82
2022/11/01 06:49:43;;;;;;;8.75;4.85;;;21.10;57.30;;;;;;5002339;28;20038;-86
2022/11/01 06:52:10;;;;;;;6.25;1.45;;;21.20;57.30;;;;;;5016326;28;20029;-79
2022/11/01 06:54:36;;;;;;;6.75;1.52;;;21.20;57.20;;;;;;4996523;28;20045;-82
2022/11/01 06:57:04;;;;;;;6.43;2.25;;;21.30;56.90;;;;;;5007927;28;20477;-85
2022/11/01 06:59:30;;;;;;;19.33;4.60;;;21.30;56.60;;;;;;5006821;28;20033;-84
2022/11/01 07:01:57;;;;;;;8.48;1.52;;;21.30;56.50;;;;;;5007617;28;20073;-82
2022/11/01 07:04:25;;;;;;;11.30;1.67;;;21.40;56.40;;;;;;5002201;28;20042;-83
2022/11/01 07:06:52;;;;;;;14.68;1.98;;;21.40;56.40;;;;;;5003671;28;20073;-86
2022/11/01 07:09:19;;;;;;;10.15;2.28;;;21.50;56.50;;;;;;5008501;28;20693;-85
2022/11/01 07:11:45;;;;;;;17.90;2.78;;;21.50;56.60;;;;;;5001465;28;20026;-85
2022/11/01 07:14:12;;;;;;;8.68;1.83;;;21.50;56.60;;;;;;5001581;28;20120;-91
2022/11/01 07:16:38;;;;;;;9.98;2.08;;;21.60;56.50;;;;;;5005902;28;20613;-85
2022/11/01 07:19:05;;;;;;;5.45;2.40;;;21.60;56.10;;;;;;5009072;28;20060;-88
2022/11/01 07:21:31;;;;;;;4.65;1.65;;;21.70;55.90;;;;;;5002408;28;20129;-79
2022/11/01 07:23:58;;;;;;;8.60;2.67;;;21.70;55.40;;;;;;5003884;28;20124;-89
2022/11/01 07:26:24;;;;;;;11.48;2.92;;;21.80;55.20;;;;;;5008934;28;20022;-87
2022/11/01 07:28:51;;;;;;;12.20;2.03;;;21.80;55.00;;;;;;5004982;28;20034;-80
2022/11/01 07:31:17;;;;;;;15.10;5.47;;;21.90;54.70;;;;;;5010102;28;20029;-79
2022/11/01 07:33:44;;;;;;;15.40;4.15;;;22.00;54.70;;;;;;5005890;28;20456;-85
2022/11/01 07:36:10;;;;;;;10.20;3.63;;;22.00;54.50;;;;;;5009721;28;20104;-86
2022/11/01 07:38:37;;;;;;;7.82;3.70;;;22.00;53.80;;;;;;5003078;28;20033;-81
2022/11/01 07:41:04;;;;;;;9.43;6.03;;;22.10;53.50;;;;;;5009708;28;20062;-78
2022/11/01 07:43:31;;;;;;;11.02;7.03;;;22.20;52.90;;;;;;5005055;28;20658;-85
2022/11/01 07:46:03;;;;;;;9.52;7.45;;;22.30;51.90;;;;;;5003527;28;20840;-80
2022/11/01 07:48:29;;;;;;;15.98;8.70;;;22.30;51.30;;;;;;5007224;28;20030;-78
2022/11/01 07:50:56;;;;;;;10.63;7.32;;;22.40;51.00;;;;;;5007253;28;21365;-87
2022/11/01 07:53:23;;;;;;;12.50;5.25;;;22.50;50.50;;;;;;5008897;28;20053;-78
2022/11/01 07:55:50;;;;;;;11.65;4.25;;;22.50;50.30;;;;;;5005854;28;20022;-81
2022/11/01 07:58:16;;;;;;;6.38;3.88;;;22.60;50.40;;;;;;5007826;28;20025;-78
2022/11/01 08:00:44;;;;;;;10.38;2.92;;;22.60;50.50;;;;;;5009375;28;20057;-77
2022/11/01 08:03:15;;;;;;;8.48;2.95;;;22.70;50.20;;;;;;5007623;28;20038;-84
2022/11/01 08:05:46;;;;;;;10.77;2.85;;;22.80;49.90;;;;;;5006567;28;20056;-80
2022/11/01 08:08:14;;;;;;;5.50;1.92;;;22.90;50.30;;;;;;5000202;28;20068;-79
2022/11/01 08:10:43;;;;;;;5.28;2.60;;;22.90;50.10;;;;;;5006107;28;20076;-82
2022/11/01 08:13:18;;;;;;;12.07;2.50;;;23.00;49.40;;;;;;5003276;28;20054;-80
2022/11/01 08:15:48;;;;;;;9.65;1.65;;;23.10;49.10;;;;;;5006517;28;20028;-79
2022/11/01 08:18:16;;;;;;;8.15;2.00;;;23.20;48.60;;;;;;5023038;28;20030;-84
2022/11/01 08:20:45;;;;;;;5.18;1.85;;;23.20;47.80;;;;;;5009740;28;20030;-77
2022/11/01 08:23:11;;;;;;;6.20;1.67;;;23.30;47.80;;;;;;5005389;28;20052;-81
2022/11/01 08:25:38;;;;;;;9.95;2.15;;;23.40;47.60;;;;;;5006672;28;20025;-82
2022/11/01 08:28:08;;;;;;;8.38;1.98;;;23.40;46.70;;;;;;5008561;28;20021;-85
2022/11/01 08:30:36;;;;;;;5.38;1.25;;;23.50;45.90;;;;;;5002883;28;20018;-82
2022/11/01 08:33:04;;;;;;;5.05;0.98;;;23.60;46.20;;;;;;5007297;28;20022;-85
2022/11/01 08:35:31;;;;;;;7.05;1.73;;;23.70;46.50;;;;;;5007157;28;20018;-82
2022/11/01 08:37:58;;;;;;;4.10;1.00;;;23.70;46.30;;;;;;4999791;28;20026;-85
2022/11/01 08:40:29;;;;;;;5.75;1.60;;;23.80;46.70;;;;;;5007369;28;20025;-78
2022/11/01 08:42:56;;;;;;;3.10;1.48;;;23.80;47.60;;;;;;5006094;28;20374;-78
2022/11/01 08:45:23;;;;;;;6.43;1.38;;;23.90;46.50;;;;;;5008033;28;20049;-85
2022/11/01 08:47:49;;;;;;;9.90;3.38;;;24.00;46.00;;;;;;4999988;28;20492;-81
2022/11/01 08:50:17;;;;;;;7.90;2.88;;;24.10;45.40;;;;;;4999975;28;20029;-83
2022/11/01 08:52:43;;;;;;;11.85;2.67;;;24.20;45.30;;;;;;5003114;28;20014;-77
2022/11/01 08:55:10;;;;;;;13.05;2.20;;;24.20;45.10;;;;;;5005319;28;20030;-85
2022/11/01 08:57:37;;;;;;;10.60;1.42;;;24.30;45.40;;;;;;5002131;28;20093;-80
2022/11/01 09:00:12;;;;;;;5.35;1.67;;;24.30;45.10;;;;;;5008727;28;20389;-79
2022/11/01 09:02:39;;;;;;;5.03;1.23;;;24.40;44.80;;;;;;5006504;28;20022;-85
2022/11/01 09:05:06;;;;;;;5.13;1.80;;;24.50;44.40;;;;;;5007454;28;20116;-77
2022/11/01 09:07:36;;;;;;;3.92;1.35;;;24.50;44.20;;;;;;5003889;28;20465;-84
2022/11/01 09:10:04;;;;;;;9.02;1.70;;;24.60;44.00;;;;;;5002009;28;20148;-82
2022/11/01 09:12:30;;;;;;;7.18;2.13;;;24.70;44.00;;;;;;5004713;28;20022;-85
2022/11/01 09:14:57;;;;;;;6.25;1.98;;;24.70;43.10;;;;;;5006859;28;20457;-84
2022/11/01 09:17:23;;;;;;;4.05;1.83;;;24.80;43.10;;;;;;5011110;28;20789;-84
2022/11/01 09:19:50;;;;;;;8.25;1.67;;;24.90;43.00;;;;;;5005002;28;20406;-83
2022/11/01 09:22:16;;;;;;;5.60;1.63;;;25.00;42.70;;;;;;5009418;28;20018;-78
2022/11/01 09:24:43;;;;;;;9.38;3.58;;;25.10;42.60;;;;;;5005405;28;20046;-82
2022/11/01 09:27:10;;;;;;;5.78;1.65;;;25.10;42.60;;;;;;5010088;28;20049;-83
2022/11/01 09:29:36;;;;;;;5.72;1.92;;;25.20;42.60;;;;;;5011379;28;20034;-83
2022/11/01 09:32:03;;;;;;;5.43;1.88;;;25.30;41.60;;;;;;5011499;28;20033;-80
2022/11/01 09:34:29;;;;;;;2.80;1.65;;;25.30;41.90;;;;;;5009321;28;20019;-82
2022/11/01 09:36:56;;;;;;;8.02;3.25;;;25.40;41.60;;;;;;5006858;28;20487;-83
2022/11/01 09:39:23;;;;;;;6.95;1.80;;;25.50;41.30;;;;;;5013550;28;20503;-79
2022/11/01 09:41:55;;;;;;;7.95;2.05;;;25.50;41.10;;;;;;5014196;28;20022;-77
2022/11/01 09:44:50;;;;;;;7.18;2.25;;;25.60;41.00;;;;;;5014173;28;20088;-78
2022/11/01 09:47:21;;;;;;;9.67;3.27;;;25.70;41.10;;;;;;5012796;28;20050;-82
2022/11/01 09:49:55;;;;;;;7.85;3.65;;;25.80;42.00;;;;;;5005593;28;20029;-80
2022/11/01 09:52:24;;;;;;;12.48;3.42;;;25.80;42.30;;;;;;5005120;28;20173;-84
2022/11/01 09:54:51;;;;;;;8.43;3.92;;;25.90;43.20;;;;;;5004220;28;20030;-83
2022/11/01 09:57:27;;;;;;;9.95;4.00;;;25.90;43.00;;;;;;5007931;28;20030;-80
2022/11/01 10:00:12;;;;;;;10.80;4.45;;;26.00;43.50;;;;;;5008653;28;20033;-80
2022/11/01 10:02:57;;;;;;;7.20;3.50;;;26.10;43.70;;;;;;5003918;28;20045;-78
2022/11/01 10:05:35;;;;;;;7.80;2.70;;;26.10;43.20;;;;;;5009423;28;20057;-82
2022/11/01 10:08:20;;;;;;;5.75;2.45;;;26.20;42.50;;;;;;5003128;28;20021;-79
2022/11/01 10:10:49;;;;;;;7.05;3.72;;;26.30;42.20;;;;;;5008574;28;20100;-84
2022/11/01 10:13:40;;;;;;;7.85;1.98;;;26.30;41.50;;;;;;5007573;28;20105;-84
2022/11/01 10:16:34;;;;;;;10.13;5.07;;;26.40;41.00;;;;;;5005561;28;20036;-80
2022/11/01 10:19:00;;;;;;;7.40;3.28;;;26.50;41.60;;;;;;5008255;28;20033;-84
2022/11/01 10:21:33;;;;;;;6.50;2.85;;;26.50;42.00;;;;;;5001800;28;20481;-82
2022/11/01 10:24:06;;;;;;;5.50;2.42;;;26.70;40.80;;;;;;5005069;28;20120;-83
2022/11/01 10:26:33;;;;;;;4.30;1.63;;;26.70;39.50;;;;;;5003872;28;20029;-80
2022/11/01 10:29:15;;;;;;;8.25;1.83;;;26.80;39.90;;;;;;5002118;28;20023;-81
2022/11/01 10:31:45;;;;;;;11.35;2.33;;;26.80;39.90;;;;;;5005949;28;20022;-76
2022/11/01 10:34:28;;;;;;;4.82;2.05;;;26.90;39.40;;;;;;5001957;28;20069;-77
2022/11/01 10:37:21;;;;;;;7.70;2.25;;;27.00;39.30;;;;;;5002211;28;20496;-83
2022/11/01 10:39:58;;;;;;;3.28;1.70;;;27.10;38.90;;;;;;5002306;28;20030;-79
2022/11/01 10:42:28;;;;;;;4.90;1.52;;;27.20;39.10;;;;;;5007061;28;20021;-84
2022/11/01 10:45:02;;;;;;;4.15;1.50;;;27.20;39.20;;;;;;5005584;28;20021;-81
2022/11/01 10:47:29;;;;;;;7.97;2.22;;;27.30;38.90;;;;;;5009822;28;20465;-76
2022/11/01 10:50:09;;;;;;;4.38;2.20;;;27.40;38.70;;;;;;5009134;28;20049;-79
2022/11/01 10:52:51;;;;;;;4.85;1.35;;;27.50;38.50;;;;;;5004625;28;20026;-83
2022/11/01 10:55:32;;;;;;;8.43;1.88;;;27.50;39.30;;;;;;5000532;28;20508;-77
2022/11/01 10:58:22;;;;;;;7.38;1.80;;;27.60;39.30;;;;;;5009195;28;20419;-80
2022/11/01 11:00:49;;;;;;;8.27;2.47;;;27.70;39.70;;;;;;5008417;28;20026;-75
2022/11/01 11:03:31;;;;;;;14.65;3.15;;;27.70;39.80;;;;;;5003690;28;20071;-78
2022/11/01 11:06:06;;;;;;;8.88;2.58;;;27.80;40.10;;;;;;5002823;28;20030;-76
2022/11/01 11:08:39;;;;;;;7.00;2.53;;;27.80;40.20;;;;;;5007786;28;20026;-77
2022/11/01 11:11:21;;;;;;;5.70;2.50;;;27.90;40.40;;;;;;5007335;28;20021;-75
2022/11/01 11:13:52;;;;;;;7.45;1.70;;;27.90;40.50;;;;;;5004141;28;20053;-79
2022/11/01 11:16:52;;;;;;;6.03;1.80;;;27.90;40.50;;;;;;5004886;28;20014;-80
2022/11/01 11:19:46;;;;;;;8.32;2.17;;;28.00;40.80;;;;;;5003012;28;20037;-79
2022/11/01 11:22:13;;;;;;;3.72;1.80;;;28.00;41.00;;;;;;5000600;28;20132;-81
2022/11/01 11:24:42;;;;;;;5.25;1.90;;;28.10;41.00;;;;;;5006621;28;20030;-79
2022/11/01 11:27:30;;;;;;;5.93;2.10;;;28.10;41.30;;;;;;5006530;28;20022;-81
2022/11/01 11:30:01;;;;;;;3.22;2.03;;;28.20;41.70;;;;;;5000733;28;20029;-79
2022/11/01 11:32:31;;;;;;;6.28;2.15;;;28.20;41.50;;;;;;5006483;28;20052;-78
2022/11/01 11:35:03;;;;;;;4.43;1.90;;;28.20;41.40;;;;;;5003527;28;20030;-75
2022/11/01 11:37:33;;;;;;;4.97;2.75;;;28.30;41.60;;;;;;5021578;28;20113;-80
2022/11/01 11:40:20;;;;;;;13.18;2.92;;;28.30;41.70;;;;;;5003320;28;20026;-83
2022/11/01 11:42:49;;;;;;;8.60;3.60;;;28.40;41.30;;;;;;5003711;28;20056;-76
2022/11/01 11:45:21;;;;;;;13.65;2.70;;;28.40;40.90;;;;;;5005125;28;20018;-77
2022/11/01 11:47:51;;;;;;;7.93;2.20;;;28.50;40.70;;;;;;5003943;28;20022;-77
2022/11/01 11:50:20;;;;;;;11.93;2.38;;;28.50;40.80;;;;;;5003466;28;20028;-76
2022/11/01 11:53:06;;;;;;;35.40;4.18;;;28.60;40.90;;;;;;5004592;28;20105;-82
2022/11/01 11:55:40;;;;;;;11.32;2.78;;;28.60;41.30;;;;;;5005924;28;20038;-88
2022/11/01 11:58:26;;;;;;;9.68;5.05;;;28.70;41.60;;;;;;5001728;28;20437;-76
2022/11/01 12:01:02;;;;;;;10.73;2.00;;;28.70;42.10;;;;;;5001452;28;20033;-80
2022/11/01 12:03:29;;;;;;;6.40;2.85;;;28.80;42.10;;;;;;5000033;28;20030;-77
2022/11/01 12:06:06;;;;;;;7.32;2.15;;;28.80;41.70;;;;;;5017551;28;20030;-78
2022/11/01 12:08:48;;;;;;;10.38;2.10;;;28.80;41.80;;;;;;5003123;28;20018;-78
2022/11/01 12:11:15;;;;;;;11.65;2.83;;;28.80;41.80;;;;;;5004917;28;20030;-77
2022/11/01 12:13:45;;;;;;;7.75;1.88;;;28.80;41.80;;;;;;5006807;28;20401;-78
2022/11/01 12:16:20;;;;;;;6.68;2.20;;;28.80;41.90;;;;;;5017525;28;20026;-77
2022/11/01 12:18:47;;;;;;;;;;;28.90;42.10;;;;;;5017068;28;20022;-77
2022/11/01 12:21:35;;;;;;;9.45;2.40;;;28.90;42.10;;;;;;5017197;28;20361;-76
2022/11/01 12:24:20;;;;;;;5.25;2.58;;;28.90;42.10;;;;;;5002899;28;20492;-76
2022/11/01 12:26:50;;;;;;;19.48;3.45;;;28.80;42.10;;;;;;5007941;28;20102;-80
2022/11/01 12:29:42;;;;;;;5.00;1.92;;;28.90;42.20;;;;;;5007376;28;20412;-85
2022/11/01 12:32:20;;;;;;;17.52;2.25;;;28.80;42.10;;;;;;5004392;28;20053;-79
2022/11/01 12:34:49;;;;;;;9.32;2.72;;;28.80;42.30;;;;;;5005869;28;20104;-82
2022/11/01 12:37:22;;;;;;;8.00;3.35;;;28.80;42.40;;;;;;5004951;28;20029;-84
2022/11/01 12:40:24;;;;;;;7.28;2.75;;;28.80;42.70;;;;;;5007798;28;20027;-77
2022/11/01 12:43:15;;;;;;;8.85;3.00;;;28.80;42.90;;;;;;4988283;28;20027;-81
2022/11/01 12:46:01;;;;;;;11.88;3.30;;;28.80;43.20;;;;;;5005169;28;20042;-84
2022/11/01 12:48:45;;;;;;;16.02;3.05;;;28.80;43.30;;;;;;5008523;28;20036;-79
2022/11/01 12:51:26;;;;;;;15.32;3.72;;;28.80;43.40;;;;;;5002641;28;20022;-85
2022/11/01 12:54:32;;;;;;;12.02;3.03;;;28.80;43.50;;;;;;5007327;28;20019;-86
2022/11/01 12:57:00;;;;;;;12.57;2.40;;;28.80;43.70;;;;;;5007772;28;20569;-78
2022/11/01 12:59:34;;;;;;;6.97;2.67;;;28.90;43.80;;;;;;5007202;28;20404;-84
2022/11/01 13:02:19;;;;;;;22.63;3.53;;;28.90;44.40;;;;;;5004685;28;20041;-84
2022/11/01 13:05:04;;;;;;;8.45;2.35;;;28.90;43.70;;;;;;5000769;28;20068;-87
2022/11/01 13:08:08;;;;;;;10.93;2.80;;;28.90;43.70;;;;;;5008849;28;20022;-87
2022/11/01 13:10:51;;;;;;;21.88;3.25;;;29.00;44.00;;;;;;5004228;28;20039;-81
2022/11/01 13:14:01;;;;;;;9.48;2.97;;;29.00;43.90;;;;;;5008908;28;20366;-83
2022/11/01 13:16:38;;;;;;;10.32;2.72;;;29.00;44.00;;;;;;5006974;28;20113;-80
2022/11/01 13:19:19;;;;;;;13.88;4.05;;;29.00;44.20;;;;;;5009880;28;20076;-81
2022/11/01 13:22:10;;;;;;;14.02;3.28;;;29.00;44.80;;;;;;5006492;28;20101;-80
2022/11/01 13:24:52;;;;;;;15.35;3.85;;;29.00;44.40;;;;;;5008502;28;20041;-80
2022/11/01 13:27:52;;;;;;;6.57;2.90;;;29.00;44.30;;;;;;5007769;28;20045;-78
2022/11/01 13:30:19;;;;;;;19.88;3.40;;;29.00;44.00;;;;;;5018793;28;20560;-80
2022/11/01 13:33:07;;;;;;;14.82;4.25;;;29.00;44.10;;;;;;5006497;28;20021;-83
2022/11/01 13:35:58;;;;;;;11.88;3.35;;;29.00;44.20;;;;;;5005623;28;20086;-86
2022/11/01 13:38:47;;;;;;;9.77;3.72;;;29.00;44.20;;;;;;5007855;28;20113;-85
2022/11/01 13:41:18;;;;;;;10.27;2.60;;;29.00;44.30;;;;;;5006732;28;20026;-86
2022/11/01 13:44:05;;;;;;;11.88;3.70;;;29.00;44.30;;;;;;5011891;28;20034;-83
2022/11/01 13:46:59;;;;;;;17.20;3.85;;;29.00;44.50;;;;;;5005572;28;20432;-77
2022/11/01 13:49:40;;;;;;;10.32;3.10;;;29.00;44.70;;;;;;5001462;28;20528;-86
2022/11/01 13:52:19;;;;;;;10.07;3.58;;;29.00;44.60;;;;;;5009124;28;20034;-83